Time;durP1;ratioP1;P1;durP2;ratioP2;P2;SDS_P1;SDS_P2;PMS_P1;PMS_P2;Temp;Humidity;BMP_temperature;BMP_pressure;BME280_temperature;BME280_humidity;BME280_pressure;Samples;Min_cycle;Max_cycle;Signal;HPM_P1;HPM_P2
2023/01/13 00:00:53;;;;;;;17.92;3.42;;;8.90;99.90;;;;;;4872991;29;20127;-79
2023/01/13 00:03:19;;;;;;;19.97;3.07;;;9.00;99.90;;;;;;4892688;29;20558;-79
2023/01/13 00:05:45;;;;;;;19.33;3.15;;;8.80;99.90;;;;;;4875647;29;20284;-79
2023/01/13 00:08:10;;;;;;;20.52;3.30;;;8.70;99.90;;;;;;4873143;29;20040;-79
2023/01/13 00:10:36;;;;;;;24.17;3.22;;;8.70;99.90;;;;;;4867690;29;20044;-79
2023/01/13 00:13:03;;;;;;;20.40;3.13;;;8.60;99.90;;;;;;4894467;29;20044;-79
2023/01/13 00:15:30;;;;;;;22.33;3.15;;;8.50;99.90;;;;;;4868596;29;20289;-79
2023/01/13 00:17:56;;;;;;;19.08;3.60;;;8.60;99.90;;;;;;4879774;29;21041;-79
2023/01/13 00:20:22;;;;;;;32.47;4.27;;;8.50;99.90;;;;;;4885216;29;20041;-79
2023/01/13 00:22:47;;;;;;;22.13;3.60;;;8.60;99.90;;;;;;4863952;29;20760;-80
2023/01/13 00:25:13;;;;;;;13.88;2.67;;;8.50;99.90;;;;;;4865270;29;20041;-80
2023/01/13 00:27:39;;;;;;;20.38;3.83;;;8.50;99.90;;;;;;4890093;29;20047;-80
2023/01/13 00:30:06;;;;;;;24.23;3.28;;;8.40;99.90;;;;;;4849562;29;20045;-80
2023/01/13 00:32:32;;;;;;;21.52;4.00;;;8.40;99.90;;;;;;4869828;29;20079;-79
2023/01/13 00:34:57;;;;;;;18.38;2.65;;;8.40;99.90;;;;;;4830486;29;20475;-78
2023/01/13 00:37:24;;;;;;;23.83;3.10;;;8.40;99.90;;;;;;4878015;29;20039;-80
2023/01/13 00:39:51;;;;;;;45.55;4.15;;;8.50;99.90;;;;;;4890450;29;20642;-79
2023/01/13 00:45:02;;;;;;;29.50;4.03;;;8.30;99.90;;;;;;4872280;29;20045;-80
2023/01/13 00:47:28;;;;;;;19.90;3.17;;;8.20;99.90;;;;;;4872661;29;20036;-80
2023/01/13 00:49:54;;;;;;;24.73;3.35;;;8.20;99.90;;;;;;4880053;29;20064;-80
2023/01/13 00:52:20;;;;;;;18.27;2.70;;;8.20;99.90;;;;;;4877802;29;20040;-80
2023/01/13 00:54:46;;;;;;;23.95;4.13;;;8.10;99.90;;;;;;4879229;29;20063;-80
2023/01/13 00:57:11;;;;;;;29.67;3.90;;;8.10;99.90;;;;;;4883480;29;20056;-80
2023/01/13 00:59:40;;;;;;;16.80;3.30;;;8.00;99.90;;;;;;4870705;29;20047;-80
2023/01/13 01:02:06;;;;;;;26.25;3.85;;;8.00;99.90;;;;;;4847293;29;20135;-79
2023/01/13 01:04:32;;;;;;;31.67;4.43;;;8.00;99.90;;;;;;4882717;29;20537;-80
2023/01/13 01:06:57;;;;;;;25.90;3.80;;;8.00;99.90;;;;;;4883650;29;20036;-80
2023/01/13 01:09:25;;;;;;;26.70;4.33;;;8.00;99.90;;;;;;4885541;29;20032;-80
2023/01/13 01:11:51;;;;;;;19.35;3.72;;;8.00;99.90;;;;;;4870235;29;20780;-80
2023/01/13 01:14:16;;;;;;;32.53;4.40;;;8.00;99.90;;;;;;4887946;29;20044;-80
2023/01/13 01:16:42;;;;;;;30.97;6.50;;;8.10;99.90;;;;;;4892728;29;20277;-80
2023/01/13 01:19:09;;;;;;;28.07;3.37;;;8.00;99.90;;;;;;4851694;29;20292;-80
2023/01/13 01:21:35;;;;;;;22.98;4.47;;;8.00;99.90;;;;;;4878695;29;20285;-80
2023/01/13 01:24:02;;;;;;;15.07;3.30;;;7.90;99.90;;;;;;4863711;29;20723;-80
2023/01/13 01:26:29;;;;;;;22.75;3.35;;;7.90;99.90;;;;;;4879450;29;20385;-80
2023/01/13 01:28:54;;;;;;;23.60;3.90;;;7.80;99.90;;;;;;4882870;29;20041;-80
2023/01/13 01:31:22;;;;;;;27.70;4.97;;;7.90;99.90;;;;;;4862586;29;20490;-80
2023/01/13 01:33:48;;;;;;;19.52;3.50;;;7.90;99.90;;;;;;4888548;29;20043;-80
2023/01/13 01:36:16;;;;;;;25.98;5.22;;;7.90;99.90;;;;;;4891688;29;20489;-80
2023/01/13 01:38:43;;;;;;;19.42;4.18;;;7.90;99.90;;;;;;4884679;29;20049;-80
2023/01/13 01:41:16;;;;;;;24.67;4.40;;;7.90;99.90;;;;;;4859574;29;20051;-80
2023/01/13 01:43:58;;;;;;;23.20;3.47;;;7.90;99.90;;;;;;4883084;29;20091;-80
2023/01/13 01:46:29;;;;;;;24.00;3.67;;;7.90;99.90;;;;;;4889933;29;20047;-80
2023/01/13 01:49:00;;;;;;;19.23;4.45;;;7.90;99.90;;;;;;4867210;29;20044;-80
2023/01/13 01:51:31;;;;;;;27.80;5.75;;;7.90;99.90;;;;;;4891862;29;20500;-80
2023/01/13 01:53:59;;;;;;;27.30;3.55;;;7.90;99.90;;;;;;4869309;29;20123;-80
2023/01/13 01:56:24;;;;;;;26.02;3.80;;;7.80;99.90;;;;;;4894625;29;20047;-80
2023/01/13 01:58:52;;;;;;;23.33;4.40;;;7.80;99.90;;;;;;4877447;29;20044;-80
2023/01/13 02:01:18;;;;;;;26.10;4.50;;;7.80;99.90;;;;;;4880531;29;20658;-80
2023/01/13 02:03:53;;;;;;;19.63;3.72;;;7.80;99.90;;;;;;4887900;29;20053;-80
2023/01/13 02:06:18;;;;;;;27.48;4.32;;;7.80;99.90;;;;;;4884500;29;20123;-80
2023/01/13 02:08:45;;;;;;;18.35;3.83;;;7.90;99.90;;;;;;4883755;29;20395;-80
2023/01/13 02:14:17;;;;;;;19.90;3.35;;;7.90;99.90;;;;;;4887232;29;20055;-80
2023/01/13 02:16:52;;;;;;;21.40;3.35;;;7.80;99.90;;;;;;4864280;29;20122;-80
2023/01/13 02:19:58;;;;;;;24.83;4.07;;;7.90;99.90;;;;;;4896839;29;20051;-80
2023/01/13 02:22:52;;;;;;;24.42;2.90;;;7.90;99.90;;;;;;4893414;29;20175;-80
2023/01/13 02:25:27;;;;;;;18.45;3.05;;;8.00;99.90;;;;;;4895153;29;20125;-80
2023/01/13 02:28:17;;;;;;;26.60;3.35;;;8.10;99.90;;;;;;4888161;29;20469;-80
2023/01/13 02:33:50;;;;;;;22.90;3.45;;;8.10;99.90;;;;;;4888122;29;20437;-80
2023/01/13 02:36:25;;;;;;;25.92;4.68;;;8.20;99.90;;;;;;4881013;29;20080;-80
2023/01/13 02:38:56;;;;;;;21.02;3.22;;;8.20;99.90;;;;;;4865173;29;20525;-80
2023/01/13 02:44:52;;;;;;;22.88;3.63;;;8.30;99.90;;;;;;4812269;29;20539;-80
2023/01/13 02:47:25;;;;;;;31.83;4.80;;;8.20;99.90;;;;;;4820140;29;20069;-80
2023/01/13 02:50:16;;;;;;;23.73;3.50;;;8.20;99.90;;;;;;4861906;29;20055;-80
2023/01/13 02:52:53;;;;;;;22.67;4.50;;;8.20;99.90;;;;;;4896736;29;20448;-80
2023/01/13 02:55:33;;;;;;;32.60;4.38;;;8.10;99.90;;;;;;4874974;29;20119;-80
2023/01/13 02:58:01;;;;;;;22.35;3.40;;;8.10;99.90;;;;;;4881049;29;20040;-80
2023/01/13 03:00:28;;;;;;;26.60;4.57;;;8.10;99.90;;;;;;4899256;29;20099;-80
2023/01/13 03:02:54;;;;;;;31.95;4.75;;;8.20;99.90;;;;;;4898700;29;20164;-80
2023/01/13 03:05:20;;;;;;;24.05;3.72;;;8.30;99.90;;;;;;4894191;29;20150;-80
2023/01/13 03:08:06;;;;;;;28.48;3.85;;;8.30;99.90;;;;;;4872351;29;20419;-80
2023/01/13 03:10:54;;;;;;;18.20;3.40;;;8.40;99.90;;;;;;4881880;29;20164;-80
2023/01/13 03:13:34;;;;;;;19.45;3.83;;;8.40;99.90;;;;;;4879212;29;20040;-80
2023/01/13 03:16:22;;;;;;;16.35;2.88;;;8.30;99.90;;;;;;4885694;29;20387;-80
2023/01/13 03:19:30;;;;;;;12.60;2.78;;;8.40;99.90;;;;;;4868357;29;20049;-79
2023/01/13 03:22:14;;;;;;;25.33;4.33;;;8.40;99.90;;;;;;4863010;29;20413;-79
2023/01/13 03:24:46;;;;;;;20.33;3.08;;;8.40;99.90;;;;;;4881462;29;20409;-79
2023/01/13 03:27:24;;;;;;;18.73;3.28;;;8.40;99.90;;;;;;4872171;29;20080;-79
2023/01/13 03:29:58;;;;;;;18.95;3.00;;;8.30;99.90;;;;;;4882338;29;20168;-80
2023/01/13 03:32:41;;;;;;;23.88;3.53;;;8.40;99.90;;;;;;4885027;29;20044;-80
2023/01/13 03:35:22;;;;;;;23.45;3.35;;;8.20;99.90;;;;;;4887546;29;20053;-80
2023/01/13 03:37:57;;;;;;;21.58;2.80;;;8.20;99.90;;;;;;4880825;29;20044;-79
2023/01/13 03:40:28;;;;;;;25.73;3.65;;;8.10;99.90;;;;;;4887274;29;20082;-79
2023/01/13 03:45:52;;;;;;;17.05;3.90;;;8.20;99.90;;;;;;4898464;29;20050;-79
2023/01/13 03:48:20;;;;;;;23.13;3.88;;;8.30;99.90;;;;;;4887144;29;20094;-79
2023/01/13 03:50:54;;;;;;;15.32;3.42;;;8.30;99.90;;;;;;4879110;29;20552;-80
2023/01/13 03:53:29;;;;;;;23.92;3.35;;;8.40;99.90;;;;;;4888961;29;20105;-80
2023/01/13 03:56:07;;;;;;;19.67;3.35;;;8.30;99.90;;;;;;4863524;29;20100;-80
2023/01/13 03:58:36;;;;;;;18.48;4.07;;;8.40;99.90;;;;;;4879052;29;20044;-80
2023/01/13 04:01:14;;;;;;;24.08;3.40;;;8.30;99.90;;;;;;4886475;29;20122;-80
2023/01/13 04:03:53;;;;;;;16.70;3.13;;;8.40;99.90;;;;;;4880019;29;20139;-80
2023/01/13 04:06:49;;;;;;;21.88;3.05;;;8.40;99.90;;;;;;4897354;29;20047;-80
2023/01/13 04:09:49;;;;;;;18.80;3.50;;;8.40;99.90;;;;;;4876990;29;20399;-80
2023/01/13 04:12:24;;;;;;;21.20;3.85;;;8.20;99.90;;;;;;4876519;29;20129;-80
2023/01/13 04:14:50;;;;;;;27.90;3.40;;;8.30;99.90;;;;;;4889274;29;20096;-80
2023/01/13 04:17:17;;;;;;;24.42;3.55;;;8.20;99.90;;;;;;4885755;29;20044;-80
2023/01/13 04:19:43;;;;;;;18.77;3.50;;;8.20;99.90;;;;;;4877441;29;20115;-80
2023/01/13 04:22:09;;;;;;;22.08;4.32;;;8.10;99.90;;;;;;4897260;29;20115;-80
2023/01/13 04:24:36;;;;;;;17.40;3.03;;;8.20;99.90;;;;;;4875058;29;20041;-80
2023/01/13 04:27:02;;;;;;;21.88;3.88;;;8.20;99.90;;;;;;4889209;29;20066;-80
2023/01/13 04:29:28;;;;;;;23.52;3.58;;;8.20;99.90;;;;;;4873274;29;20046;-80
2023/01/13 04:31:53;;;;;;;20.05;3.83;;;8.10;99.90;;;;;;4854092;29;20058;-80
2023/01/13 04:34:19;;;;;;;17.43;4.00;;;8.10;99.90;;;;;;4895716;29;20047;-80
2023/01/13 04:36:45;;;;;;;28.65;4.30;;;8.10;99.90;;;;;;4866678;29;20038;-80
2023/01/13 04:39:11;;;;;;;16.90;3.70;;;8.10;99.90;;;;;;4881525;29;20063;-80
2023/01/13 04:44:20;;;;;;;22.60;3.67;;;8.10;99.90;;;;;;4887885;29;20567;-80
2023/01/13 04:46:46;;;;;;;23.37;3.47;;;8.10;99.90;;;;;;4870859;29;20133;-80
2023/01/13 04:49:12;;;;;;;25.50;4.00;;;8.00;99.90;;;;;;4878473;29;20664;-80
2023/01/13 04:51:37;;;;;;;14.25;3.40;;;8.00;99.90;;;;;;4865844;29;20486;-80
2023/01/13 04:54:03;;;;;;;29.40;3.77;;;8.10;99.90;;;;;;4872431;29;20044;-80
2023/01/13 04:56:29;;;;;;;24.98;3.75;;;8.10;99.90;;;;;;4872545;29;20316;-80
2023/01/13 04:58:55;;;;;;;19.52;3.30;;;8.20;99.90;;;;;;4866576;29;20040;-80
2023/01/13 05:01:21;;;;;;;22.48;3.30;;;8.30;99.90;;;;;;4876959;29;20079;-80
2023/01/13 05:03:46;;;;;;;30.70;4.00;;;8.40;99.90;;;;;;4869241;29;20048;-80
2023/01/13 05:06:12;;;;;;;19.00;2.92;;;8.40;99.90;;;;;;4881362;29;20056;-80
2023/01/13 05:08:41;;;;;;;17.10;3.40;;;8.30;99.90;;;;;;4867735;29;20048;-80
2023/01/13 05:16:58;;;;;;;20.60;3.13;;;8.40;99.90;;;;;;4863164;29;20518;-80
2023/01/13 05:19:20;;;;;;;12.43;2.22;;;8.50;99.90;;;;;;4870557;29;20048;-80
2023/01/13 05:27:35;;;;;;;21.17;3.58;;;8.30;99.90;;;;;;4835088;29;20127;-80
2023/01/13 05:30:01;;;;;;;23.45;4.32;;;8.40;99.90;;;;;;4850717;29;20127;-80
2023/01/13 05:32:27;;;;;;;19.38;3.53;;;8.40;99.90;;;;;;4880945;29;20043;-80
2023/01/13 05:34:54;;;;;;;21.05;3.13;;;8.50;99.90;;;;;;4876802;29;20103;-80
2023/01/13 05:37:24;;;;;;;18.23;3.00;;;8.40;99.90;;;;;;4884045;29;20049;-81
2023/01/13 05:45:19;;;;;;;15.68;3.63;;;8.50;99.90;;;;;;4888950;29;20116;-81
2023/01/13 05:47:44;;;;;;;20.65;4.15;;;8.40;99.90;;;;;;4878458;29;20628;-81
2023/01/13 05:50:10;;;;;;;17.38;2.63;;;8.50;99.90;;;;;;4873884;29;20486;-80
2023/01/13 05:52:36;;;;;;;14.07;2.45;;;8.50;99.90;;;;;;4877806;29;20045;-80
2023/01/13 05:55:02;;;;;;;15.40;2.58;;;8.40;99.90;;;;;;4891102;29;20166;-80
2023/01/13 05:57:28;;;;;;;20.17;2.92;;;8.50;99.90;;;;;;4875753;29;20045;-80
2023/01/13 05:59:53;;;;;;;20.13;3.13;;;8.40;99.90;;;;;;4871321;29;20044;-80
2023/01/13 06:02:19;;;;;;;22.03;3.13;;;8.50;99.90;;;;;;4857084;29;20047;-80
2023/01/13 06:04:44;;;;;;;19.73;3.03;;;8.40;99.90;;;;;;4883822;29;20293;-81
2023/01/13 06:07:11;;;;;;;16.45;3.10;;;8.40;99.90;;;;;;4867735;29;20504;-81
2023/01/13 06:09:37;;;;;;;13.73;2.83;;;8.50;99.90;;;;;;4867565;29;20497;-81
2023/01/13 06:12:02;;;;;;;25.30;3.65;;;8.50;99.90;;;;;;4858785;29;20105;-81
2023/01/13 06:14:38;;;;;;;16.45;2.92;;;8.40;99.90;;;;;;4844747;29;20132;-81
2023/01/13 06:17:09;;;;;;;24.08;3.70;;;8.40;99.90;;;;;;4865401;29;20042;-81
2023/01/13 06:19:35;;;;;;;12.80;2.58;;;8.40;99.90;;;;;;4869519;29;20089;-81
2023/01/13 06:22:20;;;;;;;18.17;3.35;;;8.20;99.90;;;;;;4879379;29;20036;-81
2023/01/13 06:24:48;;;;;;;15.85;2.67;;;8.40;99.90;;;;;;4888844;29;20091;-80
2023/01/13 06:27:14;;;;;;;9.13;2.25;;;8.40;99.90;;;;;;4881610;29;20048;-80
2023/01/13 06:29:40;;;;;;;14.98;3.03;;;8.30;99.90;;;;;;4893133;29;20040;-80
2023/01/13 06:32:11;;;;;;;12.25;2.10;;;8.40;99.90;;;;;;4868454;29;20043;-81
2023/01/13 06:34:38;;;;;;;19.83;3.53;;;8.40;99.90;;;;;;4878460;29;20032;-81
2023/01/13 06:37:05;;;;;;;20.75;2.97;;;8.40;99.90;;;;;;4890182;29;20477;-81
2023/01/13 06:39:31;;;;;;;;;;;8.40;99.90;;;;;;4883800;29;20040;-80
2023/01/13 06:44:42;;;;;;;19.90;2.78;;;8.30;99.90;;;;;;4881393;29;20564;-80
2023/01/13 06:47:08;;;;;;;17.13;2.20;;;8.30;99.90;;;;;;4874565;29;20047;-81
2023/01/13 06:49:34;;;;;;;21.88;2.80;;;8.40;99.90;;;;;;4860971;29;20044;-81
2023/01/13 06:52:00;;;;;;;22.55;3.40;;;8.10;99.90;;;;;;4879544;29;20500;-81
2023/01/13 06:54:26;;;;;;;20.43;3.20;;;8.10;99.90;;;;;;4850235;29;20124;-81
2023/01/13 06:56:51;;;;;;;18.23;2.50;;;8.10;99.90;;;;;;4855667;29;20297;-80
2023/01/13 06:59:17;;;;;;;25.87;4.33;;;8.00;99.90;;;;;;4874058;29;20047;-80
2023/01/13 07:01:43;;;;;;;14.20;2.90;;;8.00;99.90;;;;;;4872202;29;20280;-80
2023/01/13 07:04:08;;;;;;;22.88;3.15;;;8.00;99.90;;;;;;4875846;29;20132;-80
2023/01/13 07:06:34;;;;;;;19.75;3.45;;;7.90;99.90;;;;;;4878850;29;20049;-80
2023/01/13 07:09:00;;;;;;;15.73;2.70;;;7.90;99.90;;;;;;4878455;29;20036;-80
2023/01/13 07:11:25;;;;;;;18.05;3.25;;;7.80;99.90;;;;;;4899179;29;20043;-80
2023/01/13 07:16:35;;;;;;;11.85;2.75;;;7.70;99.90;;;;;;4873257;29;20040;-79
2023/01/13 07:19:01;;;;;;;16.40;2.37;;;7.70;99.90;;;;;;4883942;29;20040;-79
2023/01/13 07:21:26;;;;;;;17.63;2.70;;;7.60;99.90;;;;;;4869207;29;20281;-79
2023/01/13 07:23:52;;;;;;;12.02;2.67;;;7.60;99.90;;;;;;4854998;29;20517;-78
2023/01/13 07:26:18;;;;;;;23.67;2.83;;;7.50;99.90;;;;;;4863770;29;20040;-79
2023/01/13 07:28:43;;;;;;;17.03;2.93;;;7.40;99.90;;;;;;4870075;29;20371;-79
2023/01/13 07:31:15;;;;;;;18.27;2.83;;;7.40;99.90;;;;;;4897825;29;20315;-79
2023/01/13 07:33:41;;;;;;;15.73;2.90;;;7.40;99.90;;;;;;4889482;29;20040;-79
2023/01/13 07:36:07;;;;;;;17.58;2.78;;;7.30;99.90;;;;;;4865825;29;20067;-79
2023/01/13 07:38:33;;;;;;;22.02;3.03;;;7.30;99.90;;;;;;4892200;29;20408;-79
2023/01/13 07:43:45;;;;;;;16.48;2.58;;;7.30;99.90;;;;;;4892902;29;20489;-79
2023/01/13 07:46:11;;;;;;;19.92;3.53;;;7.30;99.90;;;;;;4875232;29;20040;-80
2023/01/13 07:48:36;;;;;;;15.30;2.87;;;7.50;99.90;;;;;;4861036;29;20047;-80
2023/01/13 07:51:05;;;;;;;20.67;3.00;;;7.40;99.90;;;;;;4876836;29;20296;-79
2023/01/13 07:53:30;;;;;;;24.65;3.22;;;7.30;99.90;;;;;;4869776;29;20083;-79
2023/01/13 07:55:57;;;;;;;16.38;2.40;;;7.30;99.90;;;;;;4865994;29;20110;-79
2023/01/13 07:58:24;;;;;;;16.33;2.65;;;7.30;99.90;;;;;;4855315;29;20044;-80
2023/01/13 08:00:51;;;;;;;16.50;2.78;;;7.40;99.90;;;;;;4857259;29;20041;-79
2023/01/13 08:03:17;;;;;;;16.95;3.08;;;7.30;99.90;;;;;;4874195;29;20135;-80
2023/01/13 08:05:43;;;;;;;17.70;3.38;;;7.30;99.90;;;;;;4855801;29;20132;-80
2023/01/13 08:08:09;;;;;;;16.58;2.88;;;7.30;99.90;;;;;;4870995;29;20118;-81
2023/01/13 08:10:34;;;;;;;22.20;3.53;;;7.30;99.90;;;;;;4839406;29;20124;-80
2023/01/13 08:13:18;;;;;;;30.85;4.13;;;7.40;99.90;;;;;;4877604;29;20076;-81
2023/01/13 08:15:52;;;;;;;23.83;3.25;;;7.50;99.90;;;;;;4872936;29;20104;-81
2023/01/13 08:18:21;;;;;;;19.83;2.53;;;7.40;99.90;;;;;;4874772;29;20099;-81
2023/01/13 08:20:53;;;;;;;10.05;2.78;;;7.50;99.90;;;;;;4873346;29;20036;-80
2023/01/13 08:23:20;;;;;;;16.98;4.00;;;7.50;99.90;;;;;;4880795;29;20037;-81
2023/01/13 08:25:46;;;;;;;14.02;2.97;;;7.50;99.90;;;;;;4875713;29;20036;-81
2023/01/13 08:28:12;;;;;;;16.88;2.72;;;7.50;99.90;;;;;;4869822;29;20036;-80
2023/01/13 08:30:41;;;;;;;16.77;2.35;;;7.60;99.90;;;;;;4884515;29;20393;-80
2023/01/13 08:33:09;;;;;;;17.67;2.60;;;7.60;99.90;;;;;;4868251;29;20049;-81
2023/01/13 08:35:39;;;;;;;20.58;3.35;;;7.60;99.90;;;;;;4872209;29;20046;-81
2023/01/13 08:38:05;;;;;;;19.10;4.07;;;7.70;99.90;;;;;;4872573;29;20044;-81
2023/01/13 08:40:31;;;;;;;;;;;7.70;99.90;;;;;;4856195;29;20044;-81
2023/01/13 08:42:58;;;;;;;16.65;2.55;;;7.80;99.90;;;;;;4892794;29;19923;-81
2023/01/13 08:45:24;;;;;;;21.50;2.63;;;7.80;99.90;;;;;;4890405;29;20493;-78
2023/01/13 08:47:50;;;;;;;22.00;3.10;;;7.80;99.90;;;;;;4888218;29;20032;-81
2023/01/13 08:50:16;;;;;;;15.80;2.92;;;7.90;99.90;;;;;;4897012;29;20040;-80
2023/01/13 08:52:42;;;;;;;18.55;3.65;;;7.90;99.90;;;;;;4879423;29;20718;-80
2023/01/13 08:55:08;;;;;;;15.25;2.90;;;8.00;99.90;;;;;;4893396;29;20047;-80
2023/01/13 08:57:33;;;;;;;23.05;3.63;;;8.00;99.90;;;;;;4882077;29;20061;-80
2023/01/13 09:00:05;;;;;;;25.05;3.45;;;7.90;99.90;;;;;;4875667;29;20059;-80
2023/01/13 09:02:31;;;;;;;26.20;3.55;;;8.00;99.90;;;;;;4868214;29;20127;-80
2023/01/13 09:04:56;;;;;;;17.95;2.78;;;7.90;99.90;;;;;;4853857;29;20132;-80
2023/01/13 09:07:22;;;;;;;14.10;2.45;;;8.00;99.90;;;;;;4853947;29;20047;-79
2023/01/13 09:09:48;;;;;;;16.52;3.50;;;8.00;99.90;;;;;;4864485;29;20097;-79
2023/01/13 09:15:00;;;;;;;22.60;3.38;;;7.90;99.90;;;;;;4892873;29;20044;-78
2023/01/13 09:17:26;;;;;;;16.80;2.80;;;7.80;99.90;;;;;;4883415;29;20068;-78
2023/01/13 09:19:52;;;;;;;19.33;2.72;;;7.80;99.90;;;;;;4882511;29;20036;-78
2023/01/13 09:22:19;;;;;;;20.40;3.55;;;7.70;99.90;;;;;;4878370;29;20051;-78
2023/01/13 09:24:45;;;;;;;15.45;2.63;;;7.60;99.90;;;;;;4878769;29;20486;-77
2023/01/13 09:27:13;;;;;;;18.30;2.50;;;7.50;99.90;;;;;;4878257;29;20107;-77
2023/01/13 09:29:42;;;;;;;13.27;1.92;;;7.40;99.90;;;;;;4862561;29;20063;-77
2023/01/13 09:32:11;;;;;;;15.80;2.33;;;7.50;99.90;;;;;;4879810;29;20040;-77
2023/01/13 09:37:21;;;;;;;12.35;2.28;;;7.50;99.90;;;;;;4887125;29;20131;-77
2023/01/13 09:39:47;;;;;;;8.80;2.17;;;7.40;99.90;;;;;;4865923;29;20454;-77
2023/01/13 09:45:31;;;;;;;16.25;2.55;;;7.40;99.90;;;;;;4878096;29;20045;-77
2023/01/13 09:48:12;;;;;;;16.23;2.92;;;7.40;99.90;;;;;;4891755;29;20122;-77
2023/01/13 09:50:55;;;;;;;17.27;2.58;;;7.40;99.90;;;;;;4889198;29;20045;-77
2023/01/13 09:53:27;;;;;;;20.90;2.70;;;7.40;99.90;;;;;;4876210;29;20044;-76
2023/01/13 09:55:54;;;;;;;16.90;2.95;;;7.30;99.90;;;;;;4880847;29;20100;-76
2023/01/13 09:58:19;;;;;;;22.83;4.28;;;7.40;99.90;;;;;;4877240;29;20045;-77
2023/01/13 10:00:59;;;;;;;20.25;3.28;;;7.40;99.90;;;;;;4886582;29;20063;-77
2023/01/13 10:03:27;;;;;;;28.58;3.30;;;9.10;99.90;;;;;;4876950;29;20066;-77
2023/01/13 10:06:11;;;;;;;18.05;2.42;;;7.30;99.90;;;;;;4877586;29;20108;-76
2023/01/13 10:08:39;;;;;;;20.13;3.63;;;7.30;99.90;;;;;;4865688;29;20041;-77
2023/01/13 10:14:01;;;;;;;15.02;2.50;;;7.20;99.90;;;;;;4883334;29;20462;-78
2023/01/13 10:16:35;;;;;;;13.43;2.20;;;7.20;99.90;;;;;;4885041;29;20484;-77
2023/01/13 10:19:21;;;;;;;18.55;3.17;;;7.20;99.90;;;;;;4892841;29;20420;-77
2023/01/13 10:21:59;;;;;;;11.48;2.22;;;7.30;99.90;;;;;;4886833;29;20133;-77
2023/01/13 10:24:51;;;;;;;11.40;2.40;;;7.30;99.90;;;;;;4879700;29;20033;-77
2023/01/13 10:27:29;;;;;;;11.68;2.30;;;7.40;99.90;;;;;;4876328;29;20045;-78
2023/01/13 10:29:55;;;;;;;18.67;2.97;;;7.50;99.90;;;;;;4871727;29;20036;-77
2023/01/13 10:32:20;;;;;;;12.67;2.50;;;7.50;99.90;;;;;;4899673;29;20052;-77
2023/01/13 10:34:55;;;;;;;15.00;2.40;;;7.50;99.90;;;;;;4867158;29;20293;-78
2023/01/13 10:37:25;;;;;;;17.48;2.85;;;7.50;99.90;;;;;;4881183;29;20641;-78
2023/01/13 10:39:55;;;;;;;16.75;2.38;;;7.60;99.90;;;;;;4869954;29;20033;-78
2023/01/13 10:42:22;;;;;;;9.52;2.25;;;7.60;99.90;;;;;;4880514;29;20048;-78
2023/01/13 10:44:59;;;;;;;18.90;3.50;;;7.60;99.90;;;;;;4879009;29;20504;-78
2023/01/13 10:47:25;;;;;;;;;;;7.50;99.90;;;;;;4887909;29;20044;-78
2023/01/13 10:50:23;;;;;;;18.85;3.08;;;7.70;99.90;;;;;;4871770;29;20257;-79
2023/01/13 10:53:01;;;;;;;20.60;2.50;;;7.70;99.90;;;;;;4885225;29;20053;-78
2023/01/13 10:55:29;;;;;;;12.80;2.90;;;7.70;99.90;;;;;;4865211;29;20045;-78
2023/01/13 10:57:55;;;;;;;11.23;2.15;;;7.70;99.90;;;;;;4882525;29;20044;-78
2023/01/13 11:00:29;;;;;;;13.55;2.60;;;7.70;99.90;;;;;;4863168;29;20056;-78
2023/01/13 11:03:14;;;;;;;15.18;2.13;;;7.70;99.90;;;;;;4896713;29;20044;-78
2023/01/13 11:05:54;;;;;;;17.63;2.35;;;7.70;99.90;;;;;;4898169;29;20123;-78
2023/01/13 11:08:30;;;;;;;16.98;3.00;;;7.70;99.90;;;;;;4871291;29;20040;-78
2023/01/13 11:10:58;;;;;;;14.13;2.47;;;7.70;99.90;;;;;;4890997;29;20120;-79
2023/01/13 11:14:31;;;;;;;16.02;2.38;;;7.80;99.90;;;;;;4873911;29;20040;-78
2023/01/13 11:16:27;;;;;;;17.52;2.30;;;7.80;99.90;;;;;;4895187;29;20044;-79
2023/01/13 11:19:12;;;;;;;17.15;2.28;;;7.80;99.90;;;;;;4866309;29;20489;-79
2023/01/13 11:21:59;;;;;;;15.45;2.53;;;7.80;99.90;;;;;;4880425;29;20040;-79
2023/01/13 11:24:55;;;;;;;12.75;1.85;;;7.80;99.90;;;;;;4871472;29;20046;-79
2023/01/13 11:27:46;;;;;;;17.75;2.40;;;7.90;99.90;;;;;;4875960;29;20044;-79
2023/01/13 11:31:04;;;;;;;11.35;2.00;;;7.90;99.90;;;;;;4881945;29;20040;-80
2023/01/13 11:33:38;;;;;;;13.05;2.30;;;7.90;99.90;;;;;;4820896;29;20450;-80
2023/01/13 11:36:04;;;;;;;13.30;2.35;;;7.90;99.90;;;;;;4883728;29;20076;-80
2023/01/13 11:38:39;;;;;;;11.85;2.47;;;8.00;99.90;;;;;;4892540;29;20068;-80
2023/01/13 11:41:14;;;;;;;11.85;2.13;;;8.00;99.90;;;;;;4898866;29;20119;-81
2023/01/13 11:44:04;;;;;;;14.20;2.30;;;8.00;99.90;;;;;;4882137;29;20045;-80
2023/01/13 11:46:31;;;;;;;14.43;2.05;;;8.00;99.90;;;;;;4898478;29;20040;-81
2023/01/13 11:48:58;;;;;;;;;;;8.00;99.90;;;;;;4899056;29;20059;-81
2023/01/13 11:51:39;;;;;;;14.48;2.75;;;8.10;99.90;;;;;;4862951;29;19926;-81
2023/01/13 11:54:07;;;;;;;16.42;2.17;;;8.10;99.90;;;;;;4879901;29;20061;-81
2023/01/13 11:56:51;;;;;;;12.20;1.90;;;8.30;99.90;;;;;;4890279;29;20103;-81
2023/01/13 11:59:37;;;;;;;13.80;3.13;;;8.40;99.90;;;;;;4882939;29;20131;-81
2023/01/13 12:02:12;;;;;;;8.27;2.25;;;8.50;99.90;;;;;;4879843;29;20063;-81
2023/01/13 12:04:56;;;;;;;12.65;2.47;;;8.50;99.90;;;;;;4878955;29;20063;-80
2023/01/13 12:07:41;;;;;;;9.77;1.85;;;8.40;99.90;;;;;;4873760;29;20036;-81
2023/01/13 12:10:29;;;;;;;11.10;2.40;;;8.40;99.90;;;;;;4864353;29;20044;-81
2023/01/13 12:13:09;;;;;;;8.77;1.75;;;8.40;99.90;;;;;;4875068;29;20405;-81
2023/01/13 12:15:41;;;;;;;13.77;1.75;;;8.40;99.90;;;;;;4884125;29;20099;-81
2023/01/13 12:18:25;;;;;;;12.70;1.85;;;8.40;99.90;;;;;;4879177;29;20052;-81
2023/01/13 12:21:09;;;;;;;12.68;2.22;;;8.30;99.90;;;;;;4897157;29;20091;-80
2023/01/13 12:24:02;;;;;;;9.77;1.70;;;8.30;99.90;;;;;;4883275;29;20123;-81
2023/01/13 12:26:34;;;;;;;15.43;2.40;;;8.30;99.90;;;;;;4863471;29;20501;-81
2023/01/13 12:29:14;;;;;;;11.32;1.98;;;8.30;99.90;;;;;;4884320;29;20076;-81
2023/01/13 12:31:42;;;;;;;9.75;1.90;;;8.40;99.90;;;;;;4890527;29;20040;-81
2023/01/13 12:34:23;;;;;;;9.77;1.90;;;8.40;99.90;;;;;;4846942;29;20048;-81
2023/01/13 12:37:09;;;;;;;11.93;1.83;;;8.40;99.90;;;;;;4863451;29;20104;-81
2023/01/13 12:40:12;;;;;;;8.00;1.45;;;8.50;99.90;;;;;;4879211;29;20051;-81
2023/01/13 12:45:40;;;;;;;10.30;1.60;;;8.60;99.90;;;;;;4894117;29;20093;-81
2023/01/13 12:48:26;;;;;;;9.48;1.70;;;8.70;99.90;;;;;;4864799;29;20041;-81
2023/01/13 12:50:59;;;;;;;10.63;2.10;;;8.70;99.90;;;;;;4893199;29;20501;-81
2023/01/13 12:53:34;;;;;;;10.93;2.80;;;8.70;99.90;;;;;;4861464;29;20103;-81
2023/01/13 12:56:48;;;;;;;9.05;1.90;;;8.70;99.90;;;;;;4879613;29;20651;-81
2023/01/13 12:59:19;;;;;;;9.15;1.88;;;8.70;99.90;;;;;;4861572;29;20052;-81
2023/01/13 13:01:48;;;;;;;14.82;2.13;;;8.70;99.90;;;;;;4876591;29;20037;-81
2023/01/13 13:04:19;;;;;;;10.68;2.28;;;8.80;99.90;;;;;;4896667;29;20565;-81
2023/01/13 13:06:55;;;;;;;8.90;1.50;;;8.80;99.90;;;;;;4892346;29;20480;-81
2023/01/13 13:09:56;;;;;;;12.88;1.90;;;8.80;99.90;;;;;;4878238;29;20051;-81
2023/01/13 13:15:25;;;;;;;12.85;1.90;;;9.10;99.90;;;;;;4878196;29;20483;-81
2023/01/13 13:18:04;;;;;;;;;;;8.90;99.90;;;;;;4863876;29;20045;-81
2023/01/13 13:20:59;;;;;;;15.95;2.35;;;9.00;99.90;;;;;;4878728;29;20297;-82
2023/01/13 13:24:03;;;;;;;9.70;1.60;;;9.00;99.90;;;;;;4877510;29;20045;-79
2023/01/13 13:26:30;;;;;;;8.00;1.50;;;9.00;99.90;;;;;;4862103;29;20039;-80
2023/01/13 13:29:17;;;;;;;10.38;1.63;;;9.10;99.90;;;;;;4896747;29;20095;-80
2023/01/13 13:31:43;;;;;;;9.52;1.85;;;9.00;99.90;;;;;;4896435;29;20040;-80
2023/01/13 13:34:15;;;;;;;5.93;1.60;;;8.90;99.90;;;;;;4871744;29;20044;-81
2023/01/13 13:36:57;;;;;;;9.98;2.17;;;8.90;99.90;;;;;;4869141;29;20040;-81
2023/01/13 13:48:22;;;;;;;13.65;2.38;;;8.80;99.90;;;;;;4889279;29;20561;-80
2023/01/13 13:50:55;;;;;;;9.68;1.70;;;8.80;99.90;;;;;;4890311;29;20036;-81
2023/01/13 13:53:23;;;;;;;9.63;1.98;;;8.70;99.90;;;;;;4900857;29;20489;-80
2023/01/13 13:55:54;;;;;;;5.85;1.45;;;8.70;99.90;;;;;;4881168;29;20076;-81
2023/01/13 13:58:21;;;;;;;10.23;2.03;;;8.80;99.90;;;;;;4881620;29;20128;-80
2023/01/13 14:00:48;;;;;;;8.05;1.33;;;8.80;99.90;;;;;;4862489;29;20040;-80
2023/01/13 14:03:31;;;;;;;10.05;1.92;;;8.80;99.90;;;;;;4873853;29;20048;-80
2023/01/13 14:05:58;;;;;;;6.80;1.45;;;8.80;99.90;;;;;;4880659;29;20130;-80
2023/01/13 14:08:26;;;;;;;7.82;2.00;;;8.80;99.90;;;;;;4899213;29;20040;-80
2023/01/13 14:10:52;;;;;;;6.03;1.17;;;8.70;99.90;;;;;;4883839;29;20075;-80
2023/01/13 14:13:29;;;;;;;11.05;1.63;;;8.70;99.90;;;;;;4891329;29;20083;-81
2023/01/13 14:15:57;;;;;;;7.18;1.60;;;8.70;99.90;;;;;;4869604;29;20080;-80
2023/01/13 14:18:24;;;;;;;11.65;1.80;;;8.70;99.90;;;;;;4880987;29;20044;-81
2023/01/13 14:21:21;;;;;;;8.52;1.23;;;8.70;99.90;;;;;;4849535;29;20041;-80